PWSweather.com
Personal Weather Stations
Station Observations
SHAHALMS1
Eftra, Falkenberg, HA

EftraFalkenberg, HA

Lat: 56.85, Lon: 12.65

Elevation: 140

Station Type:

http://hem.passagen.se/risarp101

High Low Average
Temperature 69.6°F20.9°C 53.2°F11.8°C 63.3°F17.4°C
Dew Point 60.0°F15.6°C 48.8°F9.3°C 55.2°F12.9°C
Winds 13.7 mph 22.0 kmh Calm Calm 5.0 mph S8.0 kmh S
Wind Gusts 32.2 mph51.8 kmh -- 11.0 mph17.7 kmh
Humidity 89% 60% 75%
Pressure 30.01 in1016.3 mb 29.89 in1012.2 mb -
Precipitation 0.00 in0.0 mm - -
Hour Temp Dew Point Humidity Winds Wind Gusts Pressure Precip Precip Rate Daily Precip Total
12:00 AM 58.8°F14.9°C 53.3°F11.8°C 82% Calm Calm -- 29.98 in1015.2 mb 0.00 in0.0 mm 0.00 in0.0 mm 0.00 in0.0 mm
12:15 AM 58.3°F14.6°C 52.5°F11.4°C 81% Calm Calm -- 29.98 in1015.2 mb 0.00 in0.0 mm 0.00 in0.0 mm 0.00 in0.0 mm
12:30 AM 57.4°F14.1°C 51.3°F10.7°C 80% Calm Calm -- 29.98 in1015.2 mb 0.00 in0.0 mm 0.00 in0.0 mm 0.00 in0.0 mm
12:45 AM 56.7°F13.7°C 50.6°F10.3°C 80% Calm Calm -- 29.98 in1015.2 mb 0.00 in0.0 mm 0.00 in0.0 mm 0.00 in0.0 mm
01:00 AM 56.3°F13.5°C 50.2°F10.1°C 80% Calm Calm -- 29.95 in1014.2 mb 0.00 in0.0 mm 0.00 in0.0 mm 0.00 in0.0 mm
01:15 AM 55.8°F13.2°C 50.0°F10.0°C 81% Calm Calm -- 29.98 in1015.2 mb 0.00 in0.0 mm 0.00 in0.0 mm 0.00 in0.0 mm
01:30 AM 55.2°F12.9°C 49.8°F9.9°C 82% Calm Calm -- 29.98 in1015.2 mb 0.00 in0.0 mm 0.00 in0.0 mm 0.00 in0.0 mm
01:45 AM 55.0°F12.8°C 49.6°F9.8°C 82% Calm Calm -- 29.98 in1015.2 mb 0.00 in0.0 mm 0.00 in0.0 mm 0.00 in0.0 mm
02:00 AM 54.9°F12.7°C 49.8°F9.9°C 83% Calm Calm -- 29.98 in1015.2 mb 0.00 in0.0 mm 0.00 in0.0 mm 0.00 in0.0 mm
02:15 AM 54.5°F12.5°C 49.4°F9.7°C 83% Calm Calm -- 29.98 in1015.2 mb 0.00 in0.0 mm 0.00 in0.0 mm 0.00 in0.0 mm
02:30 AM 54.3°F12.4°C 49.3°F9.6°C 83% Calm Calm -- 29.98 in1015.2 mb 0.00 in0.0 mm 0.00 in0.0 mm 0.00 in0.0 mm
02:45 AM 54.3°F12.4°C 49.6°F9.8°C 84% Calm Calm -- 29.98 in1015.2 mb 0.00 in0.0 mm 0.00 in0.0 mm 0.00 in0.0 mm
03:00 AM 54.3°F12.4°C 49.6°F9.8°C 84% Calm Calm -- 29.98 in1015.2 mb 0.00 in0.0 mm 0.00 in0.0 mm 0.00 in0.0 mm
03:15 AM 54.1°F12.3°C 49.7°F9.8°C 85% Calm Calm -- 29.98 in1015.2 mb 0.00 in0.0 mm 0.00 in0.0 mm 0.00 in0.0 mm
03:30 AM 54.0°F12.2°C 49.6°F9.8°C 85% Calm Calm -- 29.98 in1015.2 mb 0.00 in0.0 mm 0.00 in0.0 mm 0.00 in0.0 mm
03:45 AM 53.8°F12.1°C 49.4°F9.7°C 85% Calm Calm -- 29.98 in1015.2 mb 0.00 in0.0 mm 0.00 in0.0 mm 0.00 in0.0 mm
04:00 AM 53.4°F11.9°C 49.0°F9.4°C 85% Calm Calm -- 29.95 in1014.2 mb 0.00 in0.0 mm 0.00 in0.0 mm 0.00 in0.0 mm
04:15 AM 53.2°F11.8°C 48.8°F9.3°C 85% Calm Calm -- 29.95 in1014.2 mb 0.00 in0.0 mm 0.00 in0.0 mm 0.00 in0.0 mm
04:30 AM 53.4°F11.9°C 49.0°F9.4°C 85% 0.2 mph E0.3 kmh E 3.9 mph6.3 kmh 29.98 in1015.2 mb 0.00 in0.0 mm 0.00 in0.0 mm 0.00 in0.0 mm
04:45 AM 53.6°F12.0°C 49.5°F9.7°C 86% Calm Calm -- 29.98 in1015.2 mb 0.00 in0.0 mm 0.00 in0.0 mm 0.00 in0.0 mm
05:00 AM 53.2°F11.8°C 48.8°F9.3°C 85% Calm Calm -- 29.98 in1015.2 mb 0.00 in0.0 mm 0.00 in0.0 mm 0.00 in0.0 mm
05:15 AM 53.2°F11.8°C 49.2°F9.6°C 86% Calm Calm -- 29.98 in1015.2 mb 0.00 in0.0 mm 0.00 in0.0 mm 0.00 in0.0 mm
05:30 AM 53.6°F12.0°C 49.5°F9.7°C 86% Calm Calm -- 29.98 in1015.2 mb 0.00 in0.0 mm 0.00 in0.0 mm 0.00 in0.0 mm
05:45 AM 55.2°F12.9°C 51.7°F10.9°C 88% Calm Calm 1.4 mph2.3 kmh 29.98 in1015.2 mb 0.00 in0.0 mm 0.00 in0.0 mm 0.00 in0.0 mm
06:00 AM 57.2°F14.0°C 54.0°F12.2°C 89% 3.0 mph WSW4.8 kmh WSW 6.4 mph10.3 kmh 29.98 in1015.2 mb 0.00 in0.0 mm 0.00 in0.0 mm 0.00 in0.0 mm
06:15 AM 58.6°F14.8°C 54.8°F12.7°C 87% 2.8 mph WSW4.5 kmh WSW 7.9 mph12.7 kmh 29.95 in1014.2 mb 0.00 in0.0 mm 0.00 in0.0 mm 0.00 in0.0 mm
06:30 AM 60.1°F15.6°C 55.9°F13.3°C 86% 2.4 mph W3.9 kmh W 6.4 mph10.3 kmh 29.98 in1015.2 mb 0.00 in0.0 mm 0.00 in0.0 mm 0.00 in0.0 mm
06:45 AM 61.2°F16.2°C 56.3°F13.5°C 84% 2.0 mph WSW3.2 kmh WSW 9.3 mph15.0 kmh 29.98 in1015.2 mb 0.00 in0.0 mm 0.00 in0.0 mm 0.00 in0.0 mm
07:00 AM 61.9°F16.6°C 56.3°F13.5°C 82% 3.3 mph WSW5.3 kmh WSW 7.9 mph12.7 kmh 29.98 in1015.2 mb 0.00 in0.0 mm 0.00 in0.0 mm 0.00 in0.0 mm
07:15 AM 63.5°F17.5°C 57.2°F14.0°C 80% 5.1 mph SW8.2 kmh SW 10.0 mph16.1 kmh 29.98 in1015.2 mb 0.00 in0.0 mm 0.00 in0.0 mm 0.00 in0.0 mm
07:30 AM 63.5°F17.5°C 56.2°F13.4°C 77% 4.6 mph WSW7.4 kmh WSW 10.4 mph16.7 kmh 29.98 in1015.2 mb 0.00 in0.0 mm 0.00 in0.0 mm 0.00 in0.0 mm
07:45 AM 63.7°F17.6°C 56.3°F13.5°C 77% 3.6 mph WSW5.8 kmh WSW 13.6 mph21.9 kmh 29.98 in1015.2 mb 0.00 in0.0 mm 0.00 in0.0 mm 0.00 in0.0 mm
08:00 AM 63.9°F17.7°C 55.8°F13.2°C 75% 4.7 mph WSW7.6 kmh WSW 12.5 mph20.1 kmh 30.01 in1016.3 mb 0.00 in0.0 mm 0.00 in0.0 mm 0.00 in0.0 mm
08:15 AM 64.8°F18.2°C 56.3°F13.5°C 74% 4.5 mph WSW7.2 kmh WSW 12.9 mph20.8 kmh 29.98 in1015.2 mb 0.00 in0.0 mm 0.00 in0.0 mm 0.00 in0.0 mm
08:30 AM 66.4°F19.1°C 56.7°F13.7°C 71% 5.6 mph WSW9.0 kmh WSW 12.9 mph20.8 kmh 29.98 in1015.2 mb 0.00 in0.0 mm 0.00 in0.0 mm 0.00 in0.0 mm
08:45 AM 66.0°F18.9°C 55.6°F13.1°C 69% 5.4 mph WSW8.7 kmh WSW 12.5 mph20.1 kmh 29.98 in1015.2 mb 0.00 in0.0 mm 0.00 in0.0 mm 0.00 in0.0 mm
09:00 AM 66.6°F19.2°C 55.3°F12.9°C 67% 4.8 mph WSW7.7 kmh WSW 13.6 mph21.9 kmh 29.98 in1015.2 mb 0.00 in0.0 mm 0.00 in0.0 mm 0.00 in0.0 mm
09:15 AM 67.5°F19.7°C 55.7°F13.2°C 66% 7.0 mph SW11.3 kmh SW 16.1 mph25.9 kmh 29.98 in1015.2 mb 0.00 in0.0 mm 0.00 in0.0 mm 0.00 in0.0 mm
09:30 AM 68.4°F20.2°C 54.8°F12.7°C 62% 8.0 mph SW12.9 kmh SW 17.5 mph28.2 kmh 29.95 in1014.2 mb 0.00 in0.0 mm 0.00 in0.0 mm 0.00 in0.0 mm
09:45 AM 68.5°F20.3°C 55.0°F12.8°C 62% 7.6 mph WSW12.2 kmh WSW 19.0 mph30.6 kmh 30.01 in1016.3 mb 0.00 in0.0 mm 0.00 in0.0 mm 0.00 in0.0 mm
10:00 AM 68.7°F20.4°C 55.2°F12.9°C 62% 7.4 mph SW11.9 kmh SW 27.9 mph44.9 kmh 29.98 in1015.2 mb 0.00 in0.0 mm 0.00 in0.0 mm 0.00 in0.0 mm
10:15 AM 68.0°F20.0°C 54.5°F12.5°C 62% 7.3 mph SW11.7 kmh SW 15.7 mph25.3 kmh 30.01 in1016.3 mb 0.00 in0.0 mm 0.00 in0.0 mm 0.00 in0.0 mm
10:30 AM 68.7°F20.4°C 55.2°F12.9°C 62% 8.5 mph WSW13.7 kmh WSW 20.4 mph32.8 kmh 29.98 in1015.2 mb 0.00 in0.0 mm 0.00 in0.0 mm 0.00 in0.0 mm
10:45 AM 69.4°F20.8°C 55.4°F13.0°C 61% 8.8 mph WSW14.2 kmh WSW 19.3 mph31.1 kmh 30.01 in1016.3 mb 0.00 in0.0 mm 0.00 in0.0 mm 0.00 in0.0 mm
11:00 AM 69.6°F20.9°C 55.1°F12.8°C 60% 8.2 mph WSW13.2 kmh WSW 20.4 mph32.8 kmh 29.98 in1015.2 mb 0.00 in0.0 mm 0.00 in0.0 mm 0.00 in0.0 mm
11:15 AM 69.4°F20.8°C 54.9°F12.7°C 60% 8.4 mph WSW13.5 kmh WSW 20.4 mph32.8 kmh 29.98 in1015.2 mb 0.00 in0.0 mm 0.00 in0.0 mm 0.00 in0.0 mm
11:30 AM 69.3°F20.7°C 55.7°F13.2°C 62% 6.7 mph SW10.8 kmh SW 16.1 mph25.9 kmh 29.98 in1015.2 mb 0.00 in0.0 mm 0.00 in0.0 mm 0.00 in0.0 mm
11:45 AM 69.1°F20.6°C 55.1°F12.8°C 61% 7.7 mph WSW12.4 kmh WSW 19.0 mph30.6 kmh 29.98 in1015.2 mb 0.00 in0.0 mm 0.00 in0.0 mm 0.00 in0.0 mm
12:00 PM 69.1°F20.6°C 55.5°F13.1°C 62% 6.4 mph WSW10.3 kmh WSW 11.8 mph19.0 kmh 29.98 in1015.2 mb 0.00 in0.0 mm 0.00 in0.0 mm 0.00 in0.0 mm
12:15 PM 68.5°F20.3°C 55.0°F12.8°C 62% 8.6 mph SW13.8 kmh SW 16.1 mph25.9 kmh 29.98 in1015.2 mb 0.00 in0.0 mm 0.00 in0.0 mm 0.00 in0.0 mm
01:52 PM 69.6°F20.9°C 56.0°F13.3°C 62% 7.6 mph W12.2 kmh W 9.3 mph15.0 kmh 29.98 in1015.2 mb 0.00 in0.0 mm 0.00 in0.0 mm 0.00 in0.0 mm
02:02 PM 69.3°F20.7°C 55.2°F12.9°C 61% 11.3 mph S18.2 kmh S 14.0 mph22.5 kmh 29.98 in1015.2 mb 0.00 in0.0 mm 0.00 in0.0 mm 0.00 in0.0 mm
02:12 PM 69.6°F20.9°C 55.6°F13.1°C 61% 3.8 mph S6.1 kmh S 4.7 mph7.6 kmh 29.98 in1015.2 mb 0.00 in0.0 mm 0.00 in0.0 mm 0.00 in0.0 mm
02:22 PM 69.1°F20.6°C 54.6°F12.6°C 60% 13.4 mph S21.6 kmh S 16.5 mph26.6 kmh 29.98 in1015.2 mb 0.00 in0.0 mm 0.00 in0.0 mm 0.00 in0.0 mm
02:32 PM 68.7°F20.4°C 54.7°F12.6°C 61% 7.9 mph S12.7 kmh S 9.7 mph15.6 kmh 29.98 in1015.2 mb 0.00 in0.0 mm 0.00 in0.0 mm 0.00 in0.0 mm
02:42 PM 68.7°F20.4°C 54.7°F12.6°C 61% 4.7 mph S7.6 kmh S 5.7 mph9.2 kmh 29.98 in1015.2 mb 0.00 in0.0 mm 0.00 in0.0 mm 0.00 in0.0 mm
02:52 PM 68.2°F20.1°C 54.7°F12.6°C 62% 7.9 mph S12.7 kmh S 9.7 mph15.6 kmh 29.98 in1015.2 mb 0.00 in0.0 mm 0.00 in0.0 mm 0.00 in0.0 mm
03:02 PM 67.6°F19.8°C 54.6°F12.6°C 63% 7.3 mph S11.7 kmh S 8.9 mph14.3 kmh 29.98 in1015.2 mb 0.00 in0.0 mm 0.00 in0.0 mm 0.00 in0.0 mm
03:12 PM 67.3°F19.6°C 54.7°F12.6°C 64% 7.6 mph W12.2 kmh W 9.3 mph15.0 kmh 29.98 in1015.2 mb 0.00 in0.0 mm 0.00 in0.0 mm 0.00 in0.0 mm
03:22 PM 66.9°F19.4°C 54.8°F12.7°C 65% 6.4 mph SW10.3 kmh SW 9.3 mph15.0 kmh 29.95 in1014.2 mb 0.00 in0.0 mm 0.00 in0.0 mm 0.00 in0.0 mm
03:32 PM 66.9°F19.4°C 55.2°F12.9°C 66% 3.8 mph S6.1 kmh S 4.7 mph7.6 kmh 29.95 in1014.2 mb 0.00 in0.0 mm 0.00 in0.0 mm 0.00 in0.0 mm
03:42 PM 66.6°F19.2°C 54.8°F12.7°C 66% 4.9 mph S7.9 kmh S 6.1 mph9.8 kmh 29.95 in1014.2 mb 0.00 in0.0 mm 0.00 in0.0 mm 0.00 in0.0 mm
03:52 PM 66.6°F19.2°C 55.3°F12.9°C 67% 7.0 mph S11.3 kmh S 8.6 mph13.8 kmh 29.95 in1014.2 mb 0.00 in0.0 mm 0.00 in0.0 mm 0.00 in0.0 mm
04:02 PM 66.4°F19.1°C 55.5°F13.1°C 68% 6.4 mph SE10.3 kmh SE 7.9 mph12.7 kmh 29.95 in1014.2 mb 0.00 in0.0 mm 0.00 in0.0 mm 0.00 in0.0 mm
04:12 PM 66.2°F19.0°C 55.3°F12.9°C 68% 4.7 mph W7.6 kmh W 5.7 mph9.2 kmh 29.95 in1014.2 mb 0.00 in0.0 mm 0.00 in0.0 mm 0.00 in0.0 mm
04:15 PM 66.2°F19.0°C 56.1°F13.4°C 70% 8.2 mph SSW13.2 kmh SSW 19.3 mph31.1 kmh 29.92 in1013.2 mb 0.00 in0.0 mm 0.00 in0.0 mm 0.00 in0.0 mm
04:18 PM 66.0°F18.9°C 56.3°F13.5°C 71% 6.4 mph W10.3 kmh W 7.9 mph12.7 kmh 29.95 in1014.2 mb 0.00 in0.0 mm 0.00 in0.0 mm 0.00 in0.0 mm
04:19 PM 66.0°F18.9°C 56.3°F13.5°C 71% 9.9 mph W15.9 kmh W 12.2 mph19.6 kmh 29.92 in1013.2 mb 0.00 in0.0 mm 0.00 in0.0 mm 0.00 in0.0 mm
04:22 PM 66.0°F18.9°C 55.6°F13.1°C 69% 10.2 mph S16.4 kmh S 12.5 mph20.1 kmh 29.95 in1014.2 mb 0.00 in0.0 mm 0.00 in0.0 mm 0.00 in0.0 mm
04:30 PM 66.2°F19.0°C 56.5°F13.6°C 71% 7.0 mph SSW11.3 kmh SSW 16.8 mph27.0 kmh 29.92 in1013.2 mb 0.00 in0.0 mm 0.00 in0.0 mm 0.00 in0.0 mm
04:32 PM 66.0°F18.9°C 56.3°F13.5°C 71% 8.7 mph S14.0 kmh S 10.7 mph17.2 kmh 29.95 in1014.2 mb 0.00 in0.0 mm 0.00 in0.0 mm 0.00 in0.0 mm
04:45 PM 66.2°F19.0°C 56.5°F13.6°C 71% 7.1 mph SW11.4 kmh SW 16.8 mph27.0 kmh 29.89 in1012.2 mb 0.00 in0.0 mm 0.00 in0.0 mm 0.00 in0.0 mm
04:53 PM 66.2°F19.0°C 56.5°F13.6°C 71% 13.7 mph W22.0 kmh W 16.8 mph27.0 kmh 29.92 in1013.2 mb 0.00 in0.0 mm 0.00 in0.0 mm 0.00 in0.0 mm
05:00 PM 66.2°F19.0°C 56.5°F13.6°C 71% 9.1 mph SSW14.6 kmh SSW 24.3 mph39.1 kmh 29.89 in1012.2 mb 0.00 in0.0 mm 0.00 in0.0 mm 0.00 in0.0 mm
05:15 PM 66.2°F19.0°C 57.3°F14.1°C 73% 10.0 mph SW16.1 kmh SW 32.2 mph51.8 kmh 29.89 in1012.2 mb 0.00 in0.0 mm 0.00 in0.0 mm 0.00 in0.0 mm
05:30 PM 66.0°F18.9°C 57.9°F14.4°C 75% 6.4 mph SW10.3 kmh SW 16.8 mph27.0 kmh 29.92 in1013.2 mb 0.00 in0.0 mm 0.00 in0.0 mm 0.00 in0.0 mm
05:45 PM 66.0°F18.9°C 58.2°F14.6°C 76% 6.2 mph WSW10.0 kmh WSW 16.8 mph27.0 kmh 29.92 in1013.2 mb 0.00 in0.0 mm 0.00 in0.0 mm 0.00 in0.0 mm
06:00 PM 66.0°F18.9°C 58.2°F14.6°C 76% 8.3 mph WSW13.4 kmh WSW 19.7 mph31.7 kmh 29.92 in1013.2 mb 0.00 in0.0 mm 0.00 in0.0 mm 0.00 in0.0 mm
06:15 PM 66.0°F18.9°C 58.2°F14.6°C 76% 7.6 mph SSW12.2 kmh SSW 21.1 mph34.0 kmh 29.92 in1013.2 mb 0.00 in0.0 mm 0.00 in0.0 mm 0.00 in0.0 mm
06:30 PM 66.2°F19.0°C 58.4°F14.7°C 76% 8.2 mph SW13.2 kmh SW 17.9 mph28.8 kmh 29.95 in1014.2 mb 0.00 in0.0 mm 0.00 in0.0 mm 0.00 in0.0 mm
06:45 PM 66.2°F19.0°C 59.1°F15.1°C 78% 8.5 mph SW13.7 kmh SW 16.8 mph27.0 kmh 29.92 in1013.2 mb 0.00 in0.0 mm 0.00 in0.0 mm 0.00 in0.0 mm
07:00 PM 65.8°F18.8°C 59.1°F15.1°C 79% 7.4 mph SSW11.9 kmh SSW 19.7 mph31.7 kmh 29.92 in1013.2 mb 0.00 in0.0 mm 0.00 in0.0 mm 0.00 in0.0 mm
07:15 PM 65.8°F18.8°C 59.5°F15.3°C 80% 7.3 mph SSW11.7 kmh SSW 19.7 mph31.7 kmh 29.92 in1013.2 mb 0.00 in0.0 mm 0.00 in0.0 mm 0.00 in0.0 mm
07:30 PM 66.0°F18.9°C 60.0°F15.6°C 81% 6.1 mph SW9.8 kmh SW 15.7 mph25.3 kmh 29.92 in1013.2 mb 0.00 in0.0 mm 0.00 in0.0 mm 0.00 in0.0 mm
07:45 PM 65.7°F18.7°C 59.7°F15.4°C 81% 7.2 mph WSW11.6 kmh WSW 19.3 mph31.1 kmh 29.92 in1013.2 mb 0.00 in0.0 mm 0.00 in0.0 mm 0.00 in0.0 mm
08:00 PM 64.8°F18.2°C 58.8°F14.9°C 81% 6.5 mph W10.5 kmh W 23.3 mph37.5 kmh 29.92 in1013.2 mb 0.00 in0.0 mm 0.00 in0.0 mm 0.00 in0.0 mm
08:15 PM 64.8°F18.2°C 59.1°F15.1°C 82% 6.5 mph SW10.5 kmh SW 14.0 mph22.5 kmh 29.89 in1012.2 mb 0.00 in0.0 mm 0.00 in0.0 mm 0.00 in0.0 mm
08:30 PM 64.9°F18.3°C 59.7°F15.4°C 83% 6.7 mph WSW10.8 kmh WSW 23.6 mph38.0 kmh 29.92 in1013.2 mb 0.00 in0.0 mm 0.00 in0.0 mm 0.00 in0.0 mm
08:45 PM 64.9°F18.3°C 59.7°F15.4°C 83% 6.8 mph WSW10.9 kmh WSW 12.2 mph19.6 kmh 29.89 in1012.2 mb 0.00 in0.0 mm 0.00 in0.0 mm 0.00 in0.0 mm
09:00 PM 64.9°F18.3°C 59.3°F15.2°C 82% 7.5 mph WSW12.1 kmh WSW 17.2 mph27.7 kmh 29.89 in1012.2 mb 0.00 in0.0 mm 0.00 in0.0 mm 0.00 in0.0 mm
09:15 PM 64.9°F18.3°C 59.3°F15.2°C 82% 6.3 mph WSW10.1 kmh WSW 12.5 mph20.1 kmh 29.92 in1013.2 mb 0.00 in0.0 mm 0.00 in0.0 mm 0.00 in0.0 mm
09:30 PM 64.9°F18.3°C 59.3°F15.2°C 82% 5.4 mph WSW8.7 kmh WSW 17.5 mph28.2 kmh 29.92 in1013.2 mb 0.00 in0.0 mm 0.00 in0.0 mm 0.00 in0.0 mm
09:45 PM 64.6°F18.1°C 59.3°F15.2°C 83% 7.1 mph W11.4 kmh W 17.5 mph28.2 kmh 29.92 in1013.2 mb 0.00 in0.0 mm 0.00 in0.0 mm 0.00 in0.0 mm
10:00 PM 64.2°F17.9°C 59.3°F15.2°C 84% 5.0 mph W8.0 kmh W 17.2 mph27.7 kmh 29.89 in1012.2 mb 0.00 in0.0 mm 0.00 in0.0 mm 0.00 in0.0 mm
10:15 PM 64.2°F17.9°C 59.6°F15.3°C 85% 5.4 mph W8.7 kmh W 14.0 mph22.5 kmh 29.92 in1013.2 mb 0.00 in0.0 mm 0.00 in0.0 mm 0.00 in0.0 mm
10:30 PM 64.0°F17.8°C 59.4°F15.2°C 85% 5.6 mph W9.0 kmh W 12.5 mph20.1 kmh 29.89 in1012.2 mb 0.00 in0.0 mm 0.00 in0.0 mm 0.00 in0.0 mm
10:45 PM 63.9°F17.7°C 59.6°F15.3°C 86% 6.4 mph W10.3 kmh W 14.0 mph22.5 kmh 29.92 in1013.2 mb 0.00 in0.0 mm 0.00 in0.0 mm 0.00 in0.0 mm
11:00 PM 64.0°F17.8°C 59.8°F15.4°C 86% 6.0 mph WSW9.7 kmh WSW 14.0 mph22.5 kmh 29.89 in1012.2 mb 0.00 in0.0 mm 0.00 in0.0 mm 0.00 in0.0 mm
11:15 PM 64.0°F17.8°C 59.8°F15.4°C 86% 6.1 mph W9.8 kmh W 16.5 mph26.6 kmh 29.92 in1013.2 mb 0.00 in0.0 mm 0.00 in0.0 mm 0.00 in0.0 mm
11:30 PM 64.0°F17.8°C 59.4°F15.2°C 85% 5.5 mph W8.9 kmh W 12.9 mph20.8 kmh 29.92 in1013.2 mb 0.00 in0.0 mm 0.00 in0.0 mm 0.00 in0.0 mm
11:45 PM 64.2°F17.9°C 59.6°F15.3°C 85% 6.5 mph WSW10.5 kmh WSW 16.8 mph27.0 kmh 29.92 in1013.2 mb 0.00 in0.0 mm 0.00 in0.0 mm 0.00 in0.0 mm